Time;durP1;ratioP1;P1;durP2;ratioP2;P2;SDS_P1;SDS_P2;PMS_P1;PMS_P2;Temp;Humidity;BMP_temperature;BMP_pressure;BME280_temperature;BME280_humidity;BME280_pressure;Samples;Min_cycle;Max_cycle;Signal;HPM_P1;HPM_P2
2023/03/26 00:01:15;;;;;;;10.75;8.18;;;;;;;12.06;100.00;99251.09;4985514;28;20108;-27
2023/03/26 00:03:43;;;;;;;10.57;7.53;;;;;;;12.15;100.00;99274.72;4983444;28;20117;-27
2023/03/26 00:06:15;;;;;;;10.93;8.15;;;;;;;12.15;100.00;99261.34;4985636;28;20102;-27
2023/03/26 00:08:43;;;;;;;11.73;7.72;;;;;;;12.01;100.00;99264.41;4985433;28;20512;-27
2023/03/26 00:11:11;;;;;;;11.82;8.60;;;;;;;11.86;100.00;99278.31;4985446;28;20086;-27
2023/03/26 00:13:38;;;;;;;11.10;8.43;;;;;;;11.91;100.00;99279.47;4986592;28;20041;-27
2023/03/26 00:16:03;;;;;;;13.30;8.55;;;;;;;12.23;100.00;99290.31;4986569;28;20082;-27
2023/03/26 00:18:30;;;;;;;10.57;8.32;;;;;;;12.26;100.00;99287.97;4986204;28;20038;-27
2023/03/26 00:20:57;;;;;;;10.15;7.88;;;;;;;12.09;100.00;99273.03;4989164;28;20026;-27
2023/03/26 00:23:23;;;;;;;10.13;7.72;;;;;;;12.22;100.00;99296.75;4990197;28;20211;-27
2023/03/26 00:25:49;;;;;;;10.80;8.23;;;;;;;11.97;100.00;99287.34;4990158;28;20129;-27
2023/03/26 00:28:16;;;;;;;13.75;9.45;;;;;;;11.71;100.00;99285.31;4990256;28;20035;-27
2023/03/26 00:30:41;;;;;;;15.40;9.75;;;;;;;11.50;100.00;99287.69;4990086;28;20038;-27
2023/03/26 00:33:10;;;;;;;14.43;10.98;;;;;;;11.63;100.00;99295.38;4990224;28;20037;-27
2023/03/26 00:35:37;;;;;;;14.02;10.38;;;;;;;11.75;100.00;99295.28;4972597;28;20030;-27
2023/03/26 00:38:03;;;;;;;14.30;11.13;;;;;;;11.30;100.00;99300.72;4990021;28;20030;-27
2023/03/26 00:40:28;;;;;;;14.07;10.68;;;;;;;11.36;100.00;99286.38;4989962;28;20452;-27
2023/03/26 00:42:54;;;;;;;13.15;10.13;;;;;;;11.51;100.00;99297.31;4990313;28;20027;-27
2023/03/26 00:45:20;;;;;;;14.20;10.43;;;;;;;11.17;100.00;99293.84;4990406;28;20161;-27
2023/03/26 00:47:46;;;;;;;12.52;9.30;;;;;;;11.12;100.00;99294.56;4990465;28;20034;-27
2023/03/26 00:50:14;;;;;;;14.63;10.52;;;;;;;10.89;100.00;99292.84;4989927;28;20022;-27
2023/03/26 00:52:45;;;;;;;13.88;10.60;;;;;;;10.79;100.00;99290.78;4990455;28;20034;-27
2023/03/26 00:55:11;;;;;;;13.98;9.52;;;;;;;10.68;100.00;99294.31;4990032;28;20038;-27
2023/03/26 00:57:36;;;;;;;12.40;10.00;;;;;;;10.66;100.00;99291.06;4990332;28;20038;-27
2023/03/26 01:00:15;;;;;;;13.32;10.00;;;;;;;10.65;100.00;99279.59;4989612;28;20046;-27
2023/03/26 01:02:43;;;;;;;11.73;9.43;;;;;;;10.79;100.00;99304.13;4990385;28;20517;-27
2023/03/26 01:05:33;;;;;;;13.45;10.32;;;;;;;10.63;100.00;99324.38;4989802;28;20037;-27
2023/03/26 01:08:14;;;;;;;14.00;10.25;;;;;;;10.93;100.00;99317.16;4990151;28;20549;-27
2023/03/26 01:10:49;;;;;;;14.48;10.95;;;;;;;10.85;100.00;99305.84;4989820;28;20026;-27
2023/03/26 01:13:17;;;;;;;14.88;10.25;;;;;;;10.94;100.00;99326.78;4990006;28;20066;-27
2023/03/26 01:15:49;;;;;;;;;;;;;;;10.93;100.00;99343.84;4990373;28;20027;-27
2023/03/26 01:18:20;;;;;;;13.00;9.85;;;;;;;11.06;100.00;99341.69;4989740;28;20244;-27
2023/03/26 01:20:49;;;;;;;15.68;10.57;;;;;;;11.02;100.00;99332.53;4989853;28;20753;-27
2023/03/26 01:23:22;;;;;;;14.05;10.82;;;;;;;11.16;100.00;99333.06;4990149;28;20046;-27
2023/03/26 01:25:58;;;;;;;18.50;10.32;;;;;;;11.24;100.00;99347.88;4989696;28;20018;-27
2023/03/26 01:28:29;;;;;;;14.95;11.05;;;;;;;11.26;100.00;99348.44;4989578;28;20517;-27
2023/03/26 01:31:18;;;;;;;19.27;13.13;;;;;;;11.10;100.00;99322.53;4989431;28;20025;-27
2023/03/26 01:33:59;;;;;;;19.40;14.05;;;;;;;11.46;100.00;99348.78;4989297;28;20116;-27
2023/03/26 01:36:27;;;;;;;20.35;14.85;;;;;;;11.36;100.00;99347.78;4989731;28;20634;-27
2023/03/26 01:39:00;;;;;;;20.08;13.85;;;;;;;11.37;100.00;99333.41;4989299;28;20072;-27
2023/03/26 01:41:35;;;;;;;19.08;14.43;;;;;;;11.51;100.00;99337.38;4971369;28;20422;-27
2023/03/26 01:44:03;;;;;;;17.10;14.02;;;;;;;11.63;100.00;99339.97;4989244;28;20037;-27
2023/03/26 01:46:34;;;;;;;;;;;;;;;11.69;100.00;99346.19;4989897;28;20022;-27
2023/03/26 01:49:02;;;;;;;18.25;13.25;;;;;;;11.70;100.00;99348.63;4989239;28;19968;-27
2023/03/26 01:51:30;;;;;;;19.30;14.33;;;;;;;11.72;100.00;99356.38;4989245;28;20109;-27
2023/03/26 01:53:57;;;;;;;;;;;;;;;11.82;100.00;99362.69;4989436;28;20030;-27
2023/03/26 01:56:28;;;;;;;20.02;15.10;;;;;;;11.77;100.00;99372.47;4989211;28;19980;-27
2023/03/26 01:59:10;;;;;;;22.15;15.88;;;;;;;11.79;100.00;99368.53;4988498;28;20062;-27
2023/03/26 02:02:13;;;;;;;19.55;14.52;;;;;;;11.83;100.00;99372.34;4989068;28;20080;-27
2023/03/26 02:04:56;;;;;;;21.25;15.50;;;;;;;11.68;100.00;99376.63;4984800;28;20521;-27
2023/03/26 02:07:24;;;;;;;19.88;15.13;;;;;;;11.60;100.00;99383.16;4988893;28;20088;-27
2023/03/26 02:09:52;;;;;;;;;;;;;;;11.69;100.00;99383.56;4989237;28;20032;-27
2023/03/26 02:12:19;;;;;;;20.10;14.95;;;;;;;11.62;100.00;99381.88;4988518;28;19976;-27
2023/03/26 02:14:45;;;;;;;19.50;14.45;;;;;;;11.65;100.00;99393.94;4988794;28;20113;-27
2023/03/26 02:17:11;;;;;;;21.23;15.43;;;;;;;11.70;100.00;99401.22;4988927;28;20080;-27
2023/03/26 02:19:41;;;;;;;20.08;15.25;;;;;;;11.68;100.00;99381.97;4988811;28;20418;-27
2023/03/26 02:22:10;;;;;;;19.45;14.57;;;;;;;11.87;100.00;99380.69;4988398;28;20573;-27
2023/03/26 02:24:38;;;;;;;19.50;14.40;;;;;;;11.94;100.00;99381.34;4988321;28;20185;-27
2023/03/26 02:27:06;;;;;;;19.52;14.27;;;;;;;12.04;100.00;99383.34;4988518;28;20022;-27
2023/03/26 02:29:36;;;;;;;17.50;13.80;;;;;;;11.65;100.00;99360.03;4988090;28;20026;-27
2023/03/26 02:32:06;;;;;;;17.30;13.48;;;;;;;11.76;100.00;99381.56;4988554;28;20049;-27
2023/03/26 02:34:32;;;;;;;19.85;14.15;;;;;;;12.09;100.00;99394.09;4988294;28;20030;-27
2023/03/26 02:36:58;;;;;;;16.95;12.85;;;;;;;12.39;100.00;99387.59;4988475;28;20472;-27
2023/03/26 02:39:25;;;;;;;16.73;12.90;;;;;;;12.38;100.00;99381.44;4987880;28;20034;-27
2023/03/26 02:41:50;;;;;;;17.65;13.05;;;;;;;12.42;100.00;99387.91;4988390;28;20065;-28
2023/03/26 02:44:16;;;;;;;18.55;13.55;;;;;;;12.15;100.00;99390.44;4987316;28;20034;-27
2023/03/26 02:46:41;;;;;;;17.17;14.07;;;;;;;12.48;100.00;99386.09;4988205;28;20085;-27
2023/03/26 02:49:07;;;;;;;19.90;13.65;;;;;;;12.35;100.00;99392.59;4988204;28;20074;-27
2023/03/26 02:51:36;;;;;;;18.70;13.18;;;;;;;12.28;100.00;99389.31;4987925;28;20026;-27
2023/03/26 02:54:02;;;;;;;17.48;13.20;;;;;;;12.42;100.00;99387.91;4988084;28;20078;-27
2023/03/26 02:56:28;;;;;;;16.55;13.23;;;;;;;11.98;100.00;99382.47;4988039;28;20049;-27
2023/03/26 02:58:54;;;;;;;15.45;12.23;;;;;;;12.04;100.00;99381.50;4987454;28;20503;-27
2023/03/26 03:01:19;;;;;;;17.25;13.18;;;;;;;11.91;100.00;99383.69;4988095;28;20034;-27
2023/03/26 03:03:48;;;;;;;15.98;12.65;;;;;;;11.82;100.00;99383.25;4987863;28;20410;-27
2023/03/26 03:06:18;;;;;;;17.45;12.25;;;;;;;12.02;100.00;99378.25;4987424;28;20045;-27
2023/03/26 03:08:47;;;;;;;16.58;12.27;;;;;;;12.01;100.00;99375.81;4987927;28;20037;-27
2023/03/26 03:11:25;;;;;;;15.07;11.57;;;;;;;12.20;100.00;99395.88;4987325;28;20102;-27
2023/03/26 03:13:52;;;;;;;17.02;12.63;;;;;;;12.19;100.00;99385.44;4987735;28;20507;-27
2023/03/26 03:16:17;;;;;;;17.15;11.95;;;;;;;12.10;100.00;99390.41;4987707;28;20476;-27
2023/03/26 03:18:42;;;;;;;17.13;11.50;;;;;;;11.91;100.00;99391.69;4987688;28;20034;-27
2023/03/26 03:21:08;;;;;;;15.02;11.13;;;;;;;12.08;100.00;99392.50;4987597;28;20076;-27
2023/03/26 03:23:33;;;;;;;16.80;12.48;;;;;;;12.02;100.00;99386.25;4987248;28;20738;-27
2023/03/26 03:26:01;;;;;;;17.65;12.45;;;;;;;12.16;100.00;99394.75;4969926;28;20462;-28
2023/03/26 03:28:27;;;;;;;15.73;11.52;;;;;;;12.02;100.00;99396.97;4987566;28;20053;-27
2023/03/26 03:30:52;;;;;;;15.43;12.52;;;;;;;12.16;100.00;99393.97;4987342;28;20425;-27
2023/03/26 03:33:20;;;;;;;16.60;11.98;;;;;;;11.83;100.00;99396.38;4987118;28;20031;-27
2023/03/26 03:35:48;;;;;;;13.38;9.95;;;;;;;11.76;100.00;99395.72;4987356;28;20026;-27
2023/03/26 03:38:14;;;;;;;12.75;9.18;;;;;;;11.73;100.00;99387.38;4987366;28;20027;-27
2023/03/26 03:40:40;;;;;;;12.52;8.05;;;;;;;11.73;100.00;99384.69;4987396;28;20084;-27
2023/03/26 03:43:05;;;;;;;10.90;7.65;;;;;;;11.69;100.00;99389.75;4987465;28;20038;-27
2023/03/26 03:45:31;;;;;;;11.30;7.55;;;;;;;11.58;100.00;99399.44;4986882;28;20057;-28
2023/03/26 03:47:57;;;;;;;9.50;6.50;;;;;;;11.60;98.83;99396.53;4987329;28;20390;-27
2023/03/26 03:50:22;;;;;;;10.35;5.90;;;;;;;11.54;97.81;99398.28;4987281;28;20402;-27
2023/03/26 03:52:48;;;;;;;9.80;6.20;;;;;;;11.68;97.06;99406.00;4987237;28;20080;-27
2023/03/26 03:55:14;;;;;;;7.85;5.35;;;;;;;11.78;95.66;99403.50;4987021;28;20080;-27
2023/03/26 03:57:39;;;;;;;8.63;4.82;;;;;;;11.86;93.74;99414.59;4986696;28;20038;-27
2023/03/26 04:00:10;;;;;;;7.43;5.28;;;;;;;11.78;92.82;99416.84;4969263;28;20046;-27
2023/03/26 04:02:36;;;;;;;6.13;3.65;;;;;;;11.74;91.52;99421.06;4987002;28;20138;-27
2023/03/26 04:05:03;;;;;;;7.82;4.70;;;;;;;11.77;92.52;99423.22;4986990;28;20892;-29
2023/03/26 04:07:31;;;;;;;8.88;3.80;;;;;;;11.70;91.89;99422.59;4986971;28;20026;-27
2023/03/26 04:09:58;;;;;;;5.82;3.65;;;;;;;11.74;91.47;99434.41;4987135;28;20062;-27
2023/03/26 04:12:27;;;;;;;7.65;4.25;;;;;;;11.74;90.53;99429.88;4986965;28;20038;-27
2023/03/26 04:14:53;;;;;;;4.70;3.20;;;;;;;11.70;89.52;99433.28;4987169;28;20067;-27
2023/03/26 04:17:22;;;;;;;5.50;3.45;;;;;;;11.64;90.07;99446.53;4986886;28;20097;-27
2023/03/26 04:19:49;;;;;;;6.05;3.25;;;;;;;11.70;89.96;99450.09;4987203;28;20589;-27
2023/03/26 04:22:17;;;;;;;4.90;3.10;;;;;;;11.68;88.69;99456.75;4986870;28;20117;-27
2023/03/26 04:24:42;;;;;;;;;;;;;;;11.74;88.80;99461.13;4987641;28;20035;-27
2023/03/26 04:27:14;;;;;;;5.40;3.00;;;;;;;11.71;88.62;99453.59;4987048;28;20041;-27
2023/03/26 04:29:42;;;;;;;3.95;2.70;;;;;;;11.71;86.85;99453.59;4986981;28;20030;-27
2023/03/26 04:32:20;;;;;;;4.60;2.20;;;;;;;11.71;86.96;99449.06;4986399;28;20110;-27
2023/03/26 04:34:46;;;;;;;3.30;2.10;;;;;;;11.65;86.78;99453.50;4986830;28;20093;-27
2023/03/26 04:37:21;;;;;;;3.63;1.85;;;;;;;11.61;86.15;99446.22;4986761;28;20026;-27
2023/03/26 04:39:46;;;;;;;3.13;1.80;;;;;;;11.68;85.49;99452.22;4986651;28;20052;-27
2023/03/26 04:42:13;;;;;;;3.15;1.75;;;;;;;11.60;84.95;99458.75;4986518;28;20504;-27
2023/03/26 04:44:41;;;;;;;4.18;2.35;;;;;;;11.61;85.57;99464.91;4986826;28;20567;-27
2023/03/26 04:47:06;;;;;;;2.88;1.90;;;;;;;11.58;85.34;99468.88;4986877;28;20092;-27
2023/03/26 04:49:32;;;;;;;3.30;1.50;;;;;;;11.60;84.46;99472.09;4986708;28;20426;-27
2023/03/26 04:51:57;;;;;;;3.38;1.60;;;;;;;11.62;82.68;99480.69;4986455;28;20030;-27
2023/03/26 04:54:23;;;;;;;4.35;2.00;;;;;;;11.69;82.79;99485.06;4986472;28;20034;-27
2023/03/26 04:56:59;;;;;;;4.65;2.30;;;;;;;11.77;82.62;99488.19;4986141;28;20031;-27
2023/03/26 04:59:33;;;;;;;3.63;2.17;;;;;;;11.76;82.35;99485.75;4986065;28;20407;-27
2023/03/26 05:02:01;;;;;;;3.45;2.03;;;;;;;11.83;81.77;99500.56;4986565;28;20042;-27
2023/03/26 05:04:28;;;;;;;4.88;1.70;;;;;;;11.81;82.04;99493.81;4986577;28;20026;-27
2023/03/26 05:06:56;;;;;;;3.13;1.70;;;;;;;11.71;82.19;99504.34;4987537;28;20085;-27
2023/03/26 05:09:22;;;;;;;2.40;1.30;;;;;;;11.53;82.74;99502.69;4990041;28;20026;-27
2023/03/26 05:11:49;;;;;;;3.35;1.77;;;;;;;11.61;83.48;99503.13;4990038;28;20022;-26
2023/03/26 05:14:15;;;;;;;1.60;1.13;;;;;;;11.76;82.19;99517.78;4989621;28;20041;-26
2023/03/26 05:16:41;;;;;;;3.53;1.70;;;;;;;11.74;83.62;99526.03;4990020;28;20022;-27
2023/03/26 05:19:07;;;;;;;3.22;1.20;;;;;;;11.91;82.69;99518.09;4989592;28;20030;-26
2023/03/26 05:21:33;;;;;;;3.30;1.60;;;;;;;11.99;81.59;99535.59;4989780;28;20027;-27
2023/03/26 05:23:59;;;;;;;3.28;1.55;;;;;;;12.10;81.00;99523.22;4989571;28;20030;-27
2023/03/26 05:26:25;;;;;;;3.67;1.52;;;;;;;12.06;81.13;99523.69;4989542;28;20081;-27
2023/03/26 05:28:50;;;;;;;2.63;1.60;;;;;;;12.07;81.12;99529.84;4989828;28;20034;-27
2023/03/26 05:31:22;;;;;;;4.90;1.73;;;;;;;12.09;81.51;99538.44;4989564;28;20034;-26
2023/03/26 05:33:48;;;;;;;5.82;2.60;;;;;;;12.19;81.36;99548.50;4989353;28;20030;-27
2023/03/26 05:36:16;;;;;;;6.80;3.50;;;;;;;12.30;81.20;99542.28;4989248;28;20038;-27
2023/03/26 05:38:46;;;;;;;2.85;1.95;;;;;;;12.35;81.35;99550.38;4989795;28;20022;-26
2023/03/26 05:41:11;;;;;;;4.18;1.95;;;;;;;12.41;80.66;99541.38;4989383;28;20623;-26
2023/03/26 05:43:37;;;;;;;2.05;1.40;;;;;;;12.26;80.92;99538.47;4989429;28;20031;-26
2023/03/26 05:46:02;;;;;;;5.88;1.60;;;;;;;12.42;81.00;99540.31;4989102;28;20026;-26
2023/03/26 05:48:28;;;;;;;2.42;1.40;;;;;;;12.54;79.77;99542.09;4989365;28;20113;-26
2023/03/26 05:50:55;;;;;;;3.95;1.33;;;;;;;12.51;79.95;99545.28;4989449;28;20504;-26
2023/03/26 05:53:22;;;;;;;1.88;1.17;;;;;;;12.60;78.48;99549.13;4989083;28;20246;-26
2023/03/26 05:55:56;;;;;;;2.20;1.10;;;;;;;12.63;77.74;99554.00;4989185;28;20553;-26
2023/03/26 05:58:23;;;;;;;2.50;1.35;;;;;;;12.94;79.17;99560.59;4988961;28;20710;-26
2023/03/26 06:00:55;;;;;;;1.83;1.10;;;;;;;12.96;77.68;99552.34;4989108;28;20097;-26
2023/03/26 06:03:21;;;;;;;2.63;1.25;;;;;;;12.79;77.70;99571.91;4988850;28;20022;-26
2023/03/26 06:05:47;;;;;;;3.65;1.90;;;;;;;12.69;78.28;99563.72;4988636;28;20022;-26
2023/03/26 06:08:12;;;;;;;2.42;1.35;;;;;;;12.97;77.92;99570.00;4988809;28;20154;-26
2023/03/26 06:10:38;;;;;;;4.00;1.65;;;;;;;12.82;77.66;99578.63;4989009;28;20025;-27
2023/03/26 06:13:04;;;;;;;3.17;1.80;;;;;;;13.13;78.76;99593.25;4988972;28;20030;-29
2023/03/26 06:15:29;;;;;;;3.63;1.77;;;;;;;13.20;77.30;99579.69;4988975;28;20030;-26
2023/03/26 06:17:55;;;;;;;2.83;1.73;;;;;;;13.29;78.00;99582.75;4988340;28;20064;-27
2023/03/26 06:20:20;;;;;;;4.72;2.67;;;;;;;13.07;78.34;99596.91;4988675;28;20427;-27
2023/03/26 06:22:45;;;;;;;5.25;2.95;;;;;;;13.14;77.42;99592.19;4988486;28;20049;-26
2023/03/26 06:25:11;;;;;;;5.40;2.13;;;;;;;13.19;78.07;99594.94;4988273;28;20417;-28
2023/03/26 06:27:36;;;;;;;2.45;1.50;;;;;;;13.48;76.93;99597.47;4988440;28;20125;-28
2023/03/26 06:30:02;;;;;;;2.58;1.65;;;;;;;13.54;76.12;99595.66;4988232;28;20028;-26
2023/03/26 06:32:27;;;;;;;4.22;1.90;;;;;;;13.62;76.74;99588.00;4988509;28;20037;-28
2023/03/26 06:34:53;;;;;;;3.13;1.70;;;;;;;13.79;76.26;99587.09;4988141;28;20031;-27
2023/03/26 06:37:18;;;;;;;4.05;1.90;;;;;;;13.91;76.03;99590.44;4988433;28;20049;-26
2023/03/26 06:39:44;;;;;;;5.13;1.90;;;;;;;13.88;76.26;99600.88;4987842;28;20038;-26
2023/03/26 06:42:10;;;;;;;3.00;1.45;;;;;;;13.83;75.35;99601.63;4988189;28;20413;-28
2023/03/26 06:44:35;;;;;;;2.28;1.48;;;;;;;13.76;74.70;99606.38;4988122;28;20101;-26
2023/03/26 06:47:01;;;;;;;4.75;1.75;;;;;;;13.95;74.25;99604.16;4987918;28;20032;-26
2023/03/26 06:49:26;;;;;;;3.55;1.70;;;;;;;14.04;73.85;99603.47;4988001;28;20034;-26
2023/03/26 06:51:52;;;;;;;2.03;1.40;;;;;;;14.41;71.90;99616.13;4987744;28;20025;-26
2023/03/26 06:54:17;;;;;;;2.15;1.40;;;;;;;14.28;69.42;99616.53;4987686;28;20450;-26
2023/03/26 06:56:43;;;;;;;3.35;1.55;;;;;;;14.59;71.56;99617.66;4987281;28;20137;-27
2023/03/26 06:59:09;;;;;;;2.58;1.27;;;;;;;14.85;67.38;99626.72;4987000;28;20101;-27
2023/03/26 07:01:34;;;;;;;1.95;1.25;;;;;;;14.96;67.99;99622.22;4987284;28;20022;-27
2023/03/26 07:04:00;;;;;;;4.50;2.10;;;;;;;15.04;66.61;99619.06;4986783;28;20030;-26
2023/03/26 07:06:25;;;;;;;1.88;1.58;;;;;;;15.03;68.49;99628.16;4987119;28;20030;-26
2023/03/26 07:08:51;;;;;;;2.30;1.33;;;;;;;15.17;65.13;99639.28;4987316;28;20052;-26
2023/03/26 07:11:18;;;;;;;2.05;1.30;;;;;;;15.16;65.24;99637.66;4987833;28;20409;-26
2023/03/26 07:13:46;;;;;;;2.03;1.10;;;;;;;15.14;60.71;99645.19;4987155;28;20105;-27
2023/03/26 07:16:12;;;;;;;3.50;1.67;;;;;;;15.17;61.98;99650.00;4987788;28;20037;-27
2023/03/26 07:18:38;;;;;;;2.03;1.20;;;;;;;14.85;62.40;99653.56;4987364;28;20030;-26
2023/03/26 07:21:04;;;;;;;2.33;1.58;;;;;;;15.26;64.63;99645.78;4987387;28;20104;-26
2023/03/26 07:23:30;;;;;;;2.95;1.33;;;;;;;15.44;61.15;99651.78;4987129;28;20065;-26
2023/03/26 07:25:55;;;;;;;2.53;1.50;;;;;;;15.64;60.15;99651.88;4987561;28;20065;-26
2023/03/26 07:28:54;;;;;;;2.42;1.42;;;;;;;15.48;60.21;99644.81;4987422;28;20054;-26
2023/03/26 07:32:05;;;;;;;3.38;1.40;;;;;;;16.03;59.65;99637.25;4959264;28;20070;-26
2023/03/26 07:34:41;;;;;;;3.30;1.10;;;;;;;16.17;56.05;99627.59;4944935;28;20565;-26
2023/03/26 07:37:35;;;;;;;1.73;1.20;;;;;;;16.36;56.22;99630.56;4967975;28;20502;-27
2023/03/26 07:40:09;;;;;;;1.25;0.93;;;;;;;16.45;52.95;99637.06;4961909;28;20043;-27
2023/03/26 07:43:22;;;;;;;2.53;1.10;;;;;;;16.56;55.19;99637.06;4968030;28;20081;-26
2023/03/26 07:45:48;;;;;;;1.83;1.00;;;;;;;16.60;51.83;99632.75;4907752;29;20033;-27
2023/03/26 07:48:26;;;;;;;1.60;0.90;;;;;;;16.71;52.56;99606.63;4907657;29;20421;-27
2023/03/26 07:50:52;;;;;;;;;;;;;;;16.68;49.05;99626.81;4944468;28;20054;-27
2023/03/26 07:53:17;;;;;;;2.58;0.80;;;;;;;16.60;48.96;99627.38;4967915;28;19918;-27
2023/03/26 07:55:56;;;;;;;1.10;0.82;;;;;;;16.67;49.05;99617.94;4966169;28;20430;-28
2023/03/26 07:58:55;;;;;;;2.72;1.05;;;;;;;16.96;49.40;99613.88;4967660;28;20041;-28
2023/03/26 08:01:39;;;;;;;3.00;1.20;;;;;;;16.93;52.77;99609.84;4967396;28;20121;-28
2023/03/26 08:04:50;;;;;;;2.10;1.00;;;;;;;16.81;47.81;99606.66;4967561;28;20026;-28
2023/03/26 08:07:27;;;;;;;2.53;1.52;;;;;;;17.00;48.61;99614.97;4964475;28;20043;-28
2023/03/26 08:10:16;;;;;;;2.95;0.85;;;;;;;17.16;46.63;99613.03;4967380;28;20031;-28
2023/03/26 08:12:59;;;;;;;1.52;1.00;;;;;;;17.12;48.00;99596.63;4967525;28;20113;-28
2023/03/26 08:15:39;;;;;;;1.50;0.90;;;;;;;17.15;46.52;99614.13;4967812;28;20027;-28
2023/03/26 08:18:17;;;;;;;1.63;0.80;;;;;;;17.32;44.27;99625.38;4967177;28;20030;-28
2023/03/26 08:20:48;;;;;;;1.55;0.70;;;;;;;17.11;44.71;99613.88;4967343;28;20047;-28
2023/03/26 08:23:34;;;;;;;3.83;0.93;;;;;;;17.15;42.92;99608.75;4967262;28;20094;-28
2023/03/26 08:26:05;;;;;;;2.05;1.23;;;;;;;17.09;45.10;99605.25;4967359;28;20137;-28
2023/03/26 08:28:40;;;;;;;3.95;1.42;;;;;;;17.51;43.85;99604.06;4967358;28;20030;-28
2023/03/26 08:31:10;;;;;;;5.10;1.50;;;;;;;17.68;43.34;99596.41;4967377;28;20031;-28
2023/03/26 08:33:35;;;;;;;3.45;1.30;;;;;;;17.82;42.19;99593.91;4967123;28;20522;-28
2023/03/26 08:36:01;;;;;;;3.72;1.30;;;;;;;17.34;41.48;99595.47;4967367;28;20031;-28
2023/03/26 08:38:26;;;;;;;3.08;1.55;;;;;;;17.47;42.74;99598.41;4967310;28;20054;-28
2023/03/26 08:40:57;;;;;;;1.30;1.05;;;;;;;17.80;41.24;99589.91;4967469;28;20070;-28
2023/03/26 08:43:37;;;;;;;3.08;1.00;;;;;;;18.03;41.95;99596.53;4970629;28;20114;-28
2023/03/26 08:46:12;;;;;;;2.22;0.77;;;;;;;18.20;41.58;99601.53;4970781;28;20037;-28
2023/03/26 08:49:00;;;;;;;3.20;0.98;;;;;;;18.48;41.24;99589.97;4971010;28;20878;-28
2023/03/26 08:51:53;;;;;;;3.42;1.33;;;;;;;18.33;39.40;99598.22;4970663;28;20031;-28
2023/03/26 08:54:43;;;;;;;3.88;1.02;;;;;;;17.86;39.27;99600.41;4970882;28;20037;-28
2023/03/26 08:57:34;;;;;;;2.13;0.80;;;;;;;18.11;41.30;99584.34;4971070;28;20023;-28
2023/03/26 09:00:12;;;;;;;2.85;1.05;;;;;;;18.30;41.47;99566.38;4970261;28;20075;-28
2023/03/26 09:03:15;;;;;;;1.40;0.95;;;;;;;18.56;39.83;99585.88;4970752;28;20023;-28
2023/03/26 09:05:54;;;;;;;1.55;0.88;;;;;;;18.77;42.32;99575.66;4970627;28;20696;-29
2023/03/26 09:08:22;;;;;;;2.17;1.25;;;;;;;18.85;41.83;99575.06;4970572;28;20027;-28
2023/03/26 09:11:07;;;;;;;;;;;;;;;18.39;39.24;99593.59;4971216;28;20077;-29
2023/03/26 09:13:44;;;;;;;1.98;1.10;;;;;;;18.13;41.45;99563.28;4969756;28;20357;-28
2023/03/26 09:16:39;;;;;;;5.85;1.23;;;;;;;18.37;41.02;99582.22;4970356;28;20157;-28
2023/03/26 09:19:17;;;;;;;3.75;1.30;;;;;;;18.36;40.42;99578.72;4968374;28;20035;-28
2023/03/26 09:22:19;;;;;;;1.63;1.20;;;;;;;18.70;43.09;99580.63;4970121;28;20031;-28
2023/03/26 09:25:17;;;;;;;1.10;1.00;;;;;;;18.67;41.35;99552.28;4969931;28;20035;-28
2023/03/26 09:28:08;;;;;;;2.78;1.30;;;;;;;18.75;40.48;99577.06;4939511;28;20034;-28
2023/03/26 09:30:49;;;;;;;2.80;1.40;;;;;;;18.82;39.83;99591.88;4970145;28;20047;-28
2023/03/26 09:33:24;;;;;;;4.07;1.30;;;;;;;18.95;41.09;99576.88;4970049;28;20123;-28
2023/03/26 09:35:54;;;;;;;2.03;1.13;;;;;;;19.20;40.81;99588.50;4970121;28;20030;-28
2023/03/26 09:38:35;;;;;;;2.58;1.00;;;;;;;19.65;39.84;99573.59;4975011;28;20101;-28
2023/03/26 09:41:15;;;;;;;1.60;0.93;;;;;;;19.52;37.39;99574.34;4979317;28;20026;-29
2023/03/26 09:44:02;;;;;;;2.13;0.80;;;;;;;19.35;37.32;99582.09;4989358;28;20034;-29
2023/03/26 09:46:30;;;;;;;3.83;1.20;;;;;;;19.38;36.34;99582.34;4989308;28;20501;-29
2023/03/26 09:49:26;;;;;;;2.05;1.00;;;;;;;19.64;35.06;99596.34;4989062;28;20030;-29
2023/03/26 09:52:08;;;;;;;3.00;0.85;;;;;;;19.72;33.59;99576.00;4989328;28;20518;-29
2023/03/26 09:54:34;;;;;;;1.83;0.85;;;;;;;19.89;34.22;99582.81;4988950;28;20037;-28
2023/03/26 09:57:02;;;;;;;1.88;0.80;;;;;;;20.22;35.11;99565.50;4988017;28;20026;-28
2023/03/26 10:00:03;;;;;;;4.05;1.10;;;;;;;20.62;34.05;99565.16;4988394;28;20101;-28
2023/03/26 10:02:31;;;;;;;1.58;0.75;;;;;;;20.29;33.89;99570.56;4989248;28;20121;-28
2023/03/26 10:05:33;;;;;;;1.73;0.70;;;;;;;20.33;32.32;99571.56;4989000;28;20038;-28
2023/03/26 10:08:40;;;;;;;4.40;0.90;;;;;;;20.48;32.94;99559.69;4989169;28;20122;-27
2023/03/26 10:11:11;;;;;;;1.83;0.80;;;;;;;20.21;32.60;99557.69;4951073;28;20125;-28
2023/03/26 10:13:43;;;;;;;1.98;0.82;;;;;;;20.55;33.33;99567.41;4988887;28;20026;-27
2023/03/26 10:16:17;;;;;;;3.25;1.02;;;;;;;20.59;33.12;99563.03;4989084;28;20034;-27
2023/03/26 10:18:56;;;;;;;2.60;1.00;;;;;;;20.33;33.60;99568.03;4989025;28;20038;-27
2023/03/26 10:21:39;;;;;;;1.95;0.93;;;;;;;20.90;32.00;99540.78;4988779;28;20037;-27
2023/03/26 10:24:13;;;;;;;1.17;0.90;;;;;;;21.55;32.35;99564.19;4988337;28;20057;-27
2023/03/26 10:26:55;;;;;;;0.90;0.80;;;;;;;20.87;30.62;99534.88;4988715;28;20041;-27
2023/03/26 10:29:30;;;;;;;2.20;0.95;;;;;;;20.81;30.95;99544.19;4988500;28;20050;-27
2023/03/26 10:32:15;;;;;;;6.03;1.10;;;;;;;20.99;31.84;99549.84;4988442;28;20073;-27
2023/03/26 10:35:11;;;;;;;1.95;1.15;;;;;;;21.28;32.60;99553.03;4988255;28;20034;-26
2023/03/26 10:37:58;;;;;;;1.60;0.80;;;;;;;21.47;29.93;99552.16;4988030;28;20190;-28
2023/03/26 10:40:58;;;;;;;1.48;0.82;;;;;;;21.17;29.27;99538.09;4988280;28;20068;-28
2023/03/26 10:43:29;;;;;;;1.40;0.88;;;;;;;21.66;30.18;99519.47;4988226;28;20030;-28
2023/03/26 10:46:27;;;;;;;2.17;1.00;;;;;;;21.94;30.11;99522.88;4988169;28;20105;-27
2023/03/26 10:49:11;;;;;;;1.73;0.80;;;;;;;22.24;29.45;99528.72;4987861;28;20339;-28
2023/03/26 10:51:49;;;;;;;0.90;0.63;;;;;;;21.86;29.68;99523.59;4988276;28;20045;-27
2023/03/26 10:54:36;;;;;;;0.95;0.88;;;;;;;22.18;29.37;99510.91;4987731;28;20030;-27
2023/03/26 10:57:39;;;;;;;0.73;0.50;;;;;;;22.60;28.67;99512.31;4987994;28;20113;-28
2023/03/26 11:00:13;;;;;;;0.70;0.30;;;;;;;22.97;25.44;99531.16;4987768;28;20273;-28
2023/03/26 11:03:00;;;;;;;2.25;0.60;;;;;;;22.95;26.21;99517.09;4987673;28;20068;-28
2023/03/26 11:05:43;;;;;;;3.35;0.60;;;;;;;23.58;24.57;99514.97;4986991;28;20494;-28
2023/03/26 11:08:16;;;;;;;1.98;0.73;;;;;;;23.34;23.24;99515.44;4970579;28;20140;-28
2023/03/26 11:10:54;;;;;;;1.65;0.50;;;;;;;23.30;24.57;99509.84;4987761;28;20178;-27
2023/03/26 11:13:37;;;;;;;0.63;0.50;;;;;;;22.82;24.87;99508.72;4987361;28;20116;-27
2023/03/26 11:16:24;;;;;;;0.70;0.40;;;;;;;22.64;23.77;99504.34;4987312;28;20057;-28
2023/03/26 11:19:19;;;;;;;1.13;0.43;;;;;;;22.95;23.33;99495.34;4987379;28;20604;-27
2023/03/26 11:22:09;;;;;;;1.27;0.70;;;;;;;24.04;24.30;99489.06;4987433;28;20054;-28
2023/03/26 11:24:52;;;;;;;0.98;0.32;;;;;;;24.12;24.37;99484.72;4987084;28;20045;-28
2023/03/26 11:27:36;;;;;;;1.88;0.55;;;;;;;23.92;23.97;99465.19;4987697;28;20086;-27
2023/03/26 11:30:21;;;;;;;1.02;0.60;;;;;;;24.33;24.53;99474.72;4970052;28;20018;-28
2023/03/26 11:32:58;;;;;;;1.45;0.65;;;;;;;23.94;25.42;99468.41;4987182;28;20030;-28
2023/03/26 11:35:34;;;;;;;2.65;0.75;;;;;;;24.26;23.63;99463.53;4987600;28;20026;-27
2023/03/26 11:38:11;;;;;;;0.77;0.53;;;;;;;24.13;24.25;99459.91;4987211;28;20110;-27
2023/03/26 11:40:40;;;;;;;1.30;0.65;;;;;;;24.38;24.69;99455.47;4987363;28;20062;-28
2023/03/26 11:43:12;;;;;;;4.32;0.80;;;;;;;24.78;23.19;99443.47;4987013;28;20081;-27
2023/03/26 11:45:43;;;;;;;1.15;0.63;;;;;;;24.28;24.56;99439.50;4987190;28;20109;-28
2023/03/26 11:48:27;;;;;;;1.30;0.80;;;;;;;24.57;23.03;99451.59;4987251;28;20061;-28
2023/03/26 11:51:00;;;;;;;1.48;0.57;;;;;;;24.93;22.12;99431.19;4987436;28;20026;-27
2023/03/26 11:53:33;;;;;;;1.83;0.73;;;;;;;25.89;21.83;99438.63;4987066;28;20740;-28